Time;durP1;ratioP1;P1;durP2;ratioP2;P2;SDS_P1;SDS_P2;PMS_P1;PMS_P2;Temp;Humidity;BMP_temperature;BMP_pressure;BME280_temperature;BME280_humidity;BME280_pressure;Samples;Min_cycle;Max_cycle;Signal;HPM_P1;HPM_P2
2023/10/30 00:00:39;;;;;;;25.47;7.90;;;;;;;12.13;84.36;95612.94;5028895;28;20234;-79
2023/10/30 00:03:04;;;;;;;17.30;7.30;;;;;;;11.85;85.32;95605.03;5042062;28;20368;-80
2023/10/30 00:05:30;;;;;;;18.63;7.23;;;;;;;11.80;85.24;95607.41;5056414;28;20653;-80
2023/10/30 00:07:55;;;;;;;17.20;7.10;;;;;;;11.78;85.58;95605.97;4955513;28;20731;-80
2023/10/30 00:10:23;;;;;;;22.03;7.43;;;;;;;11.69;85.95;95607.94;4935025;28;20226;-81
2023/10/30 00:12:49;;;;;;;19.83;6.97;;;;;;;11.78;85.43;95608.59;4962139;28;20229;-79
2023/10/30 00:15:14;;;;;;;17.03;6.90;;;;;;;11.29;87.76;95598.91;4987493;28;20216;-79
2023/10/30 00:17:40;;;;;;;20.93;7.53;;;;;;;11.44;88.23;95606.66;4995257;28;20232;-80
2023/10/30 00:20:06;;;;;;;19.80;7.23;;;;;;;11.52;86.85;95607.38;5003857;28;20227;-80
2023/10/30 00:22:32;;;;;;;18.17;6.90;;;;;;;11.57;87.12;95603.34;4981035;28;20287;-79
2023/10/30 00:24:57;;;;;;;17.63;7.17;;;;;;;11.76;86.08;95606.19;4980447;28;20243;-80
2023/10/30 00:27:23;;;;;;;19.13;6.97;;;;;;;11.82;85.37;95609.88;4949542;28;20618;-80
2023/10/30 00:29:48;;;;;;;16.17;7.00;;;;;;;11.76;86.20;95606.19;4975181;28;20235;-80
2023/10/30 00:32:14;;;;;;;20.50;7.00;;;;;;;11.90;85.64;95597.41;4983318;28;20227;-80
2023/10/30 00:34:39;;;;;;;17.80;7.53;;;;;;;11.88;85.17;95603.84;5054833;28;20240;-79
2023/10/30 00:37:04;;;;;;;15.60;7.30;;;;;;;11.71;86.23;95605.94;5039609;28;20239;-80
2023/10/30 00:39:32;;;;;;;17.10;6.90;;;;;;;11.76;86.27;95608.00;4938779;28;20399;-79
2023/10/30 00:41:59;;;;;;;16.27;6.70;;;;;;;11.68;86.89;95603.69;4975472;28;20295;-80
2023/10/30 00:44:25;;;;;;;19.30;7.60;;;;;;;11.68;86.92;95597.66;4966439;28;20232;-79
2023/10/30 00:46:53;;;;;;;18.83;6.93;;;;;;;11.56;86.63;95597.31;4954233;28;20258;-79
2023/10/30 00:49:18;;;;;;;15.60;7.03;;;;;;;11.54;88.20;95599.31;4938839;28;20223;-81
2023/10/30 00:51:44;;;;;;;14.97;7.13;;;;;;;11.53;87.95;95608.97;4943038;28;20234;-80
2023/10/30 00:54:09;;;;;;;16.20;7.00;;;;;;;11.47;86.99;95596.63;5021996;28;20231;-70
2023/10/30 00:56:35;;;;;;;17.40;6.97;;;;;;;11.51;87.24;95600.50;5036046;28;20720;-70
2023/10/30 00:59:00;;;;;;;16.60;6.90;;;;;;;11.50;86.45;95600.69;5000109;28;20227;-70
2023/10/30 01:01:26;;;;;;;15.70;6.73;;;;;;;11.30;87.02;95597.06;5038465;28;20242;-70
2023/10/30 01:03:51;;;;;;;17.57;6.60;;;;;;;11.41;86.39;95601.81;4961681;28;20265;-70
2023/10/30 01:06:17;;;;;;;17.57;6.40;;;;;;;11.42;86.55;95606.03;5040169;28;20323;-70
2023/10/30 01:08:43;;;;;;;15.47;6.40;;;;;;;11.46;86.45;95605.47;5025203;28;20317;-69
2023/10/30 01:11:09;;;;;;;16.03;6.30;;;;;;;11.48;85.79;95607.94;4967125;28;20223;-70
2023/10/30 01:13:36;;;;;;;15.67;6.27;;;;;;;11.75;84.87;95606.38;4993745;28;20816;-69
2023/10/30 01:16:01;;;;;;;14.87;6.30;;;;;;;11.76;84.43;95606.19;5025473;28;20220;-70
2023/10/30 01:18:27;;;;;;;16.27;6.40;;;;;;;11.68;84.66;95603.69;5037530;28;20266;-71
2023/10/30 01:20:53;;;;;;;14.83;6.20;;;;;;;11.35;85.63;95592.06;4953376;28;20223;-70
2023/10/30 01:23:18;;;;;;;15.63;6.10;;;;;;;11.61;86.01;95602.00;5037285;28;20227;-70
2023/10/30 01:25:47;;;;;;;15.63;6.63;;;;;;;11.47;87.19;95601.06;4971613;28;20226;-70
2023/10/30 01:28:12;;;;;;;17.23;6.50;;;;;;;11.30;86.59;95599.69;4943750;28;20224;-70
2023/10/30 01:30:38;;;;;;;17.00;6.70;;;;;;;10.97;88.47;95598.53;4949452;28;20223;-69
2023/10/30 01:33:03;;;;;;;14.90;6.53;;;;;;;10.96;89.35;95594.31;4951051;28;20610;-69
2023/10/30 01:35:29;;;;;;;13.13;6.70;;;;;;;10.93;89.41;95594.66;4969641;28;20220;-69
2023/10/30 01:37:54;;;;;;;12.77;5.70;;;;;;;11.14;88.77;95592.06;5039926;28;20239;-69
2023/10/30 01:40:20;;;;;;;16.30;6.57;;;;;;;11.43;87.90;95598.00;4970765;28;21240;-70
2023/10/30 01:42:45;;;;;;;15.47;6.50;;;;;;;11.33;88.20;95600.13;4958559;28;20235;-70
2023/10/30 01:45:10;;;;;;;17.07;6.30;;;;;;;11.15;89.35;95597.09;4987972;28;20227;-71
2023/10/30 01:47:37;;;;;;;12.63;6.27;;;;;;;11.46;88.50;95605.47;5039975;28;20271;-70
2023/10/30 01:50:02;;;;;;;16.23;6.30;;;;;;;11.30;87.95;95603.13;4950238;28;20232;-70
2023/10/30 01:52:29;;;;;;;14.67;6.03;;;;;;;11.22;88.32;95602.44;4969361;28;20254;-70
2023/10/30 01:54:54;;;;;;;15.47;6.27;;;;;;;11.16;88.72;95603.16;4973335;28;20239;-69
2023/10/30 01:57:22;;;;;;;15.20;6.50;;;;;;;10.86;89.84;95606.88;4983483;28;20231;-70
2023/10/30 01:59:49;;;;;;;16.60;6.23;;;;;;;10.81;89.77;95599.56;4968772;28;20318;-70
2023/10/30 02:02:14;;;;;;;17.53;6.20;;;;;;;10.79;89.60;95602.34;4959842;28;20231;-70
2023/10/30 02:04:40;;;;;;;13.37;5.90;;;;;;;10.93;89.75;95598.09;4970578;28;20235;-79
2023/10/30 02:07:05;;;;;;;13.63;5.73;;;;;;;10.89;89.70;95596.84;5026926;28;20231;-79
2023/10/30 02:09:31;;;;;;;11.87;5.80;;;;;;;11.07;89.31;95601.66;4960448;28;20231;-80
2023/10/30 02:11:57;;;;;;;16.83;6.10;;;;;;;10.91;89.57;95604.53;4966031;28;20236;-79
2023/10/30 02:14:26;;;;;;;12.00;5.93;;;;;;;10.95;89.50;95608.38;5036970;28;20693;-80
2023/10/30 02:16:51;;;;;;;17.57;6.00;;;;;;;10.82;89.80;95611.66;4973057;28;20232;-70
2023/10/30 02:19:21;;;;;;;14.63;5.90;;;;;;;10.79;89.96;95607.59;5023324;28;20239;-72
2023/10/30 02:21:47;;;;;;;14.17;5.63;;;;;;;10.88;89.57;95616.19;5054375;28;20238;-70
2023/10/30 02:24:12;;;;;;;13.10;5.60;;;;;;;10.92;88.97;95613.97;4957286;28;20227;-70
2023/10/30 02:26:38;;;;;;;14.07;5.70;;;;;;;10.82;89.61;95612.47;5056349;28;21056;-71
2023/10/30 02:29:04;;;;;;;14.60;5.67;;;;;;;10.55;90.92;95610.56;5033751;28;20288;-71
2023/10/30 02:31:32;;;;;;;15.77;5.40;;;;;;;10.77;90.09;95608.81;5049497;28;20248;-70
2023/10/30 02:33:59;;;;;;;14.63;5.83;;;;;;;10.71;90.33;95614.75;4979673;28;20235;-71
2023/10/30 02:36:25;;;;;;;12.50;5.30;;;;;;;10.78;90.14;95610.41;4965794;28;20236;-70
2023/10/30 02:38:52;;;;;;;15.20;5.50;;;;;;;10.96;89.40;95610.03;5032769;28;20251;-70
2023/10/30 02:41:18;;;;;;;11.00;5.73;;;;;;;10.93;89.37;95607.75;4965332;28;20231;-70
2023/10/30 02:43:44;;;;;;;15.73;5.70;;;;;;;11.00;89.87;95608.66;5034937;28;20349;-71
2023/10/30 02:46:10;;;;;;;12.30;5.57;;;;;;;10.92;90.16;95606.13;4952810;28;20257;-70
2023/10/30 02:48:35;;;;;;;11.97;5.50;;;;;;;10.71;90.36;95610.34;5035508;28;20238;-69
2023/10/30 02:51:01;;;;;;;13.57;5.50;;;;;;;10.73;90.39;95607.53;5051501;28;20280;-79
2023/10/30 02:53:26;;;;;;;13.97;5.93;;;;;;;10.75;90.48;95606.34;4971505;28;20727;-80
2023/10/30 02:55:52;;;;;;;13.90;6.20;;;;;;;10.94;89.29;95601.53;4977904;28;20312;-80
2023/10/30 02:58:17;;;;;;;16.63;5.97;;;;;;;10.84;89.42;95604.47;5052375;28;20235;-78
2023/10/30 03:00:43;;;;;;;14.03;6.17;;;;;;;10.68;89.35;95604.63;4933933;28;20300;-80
2023/10/30 03:03:09;;;;;;;15.33;6.40;;;;;;;10.50;90.88;95606.84;4971284;28;20651;-79
2023/10/30 03:05:35;;;;;;;15.87;7.00;;;;;;;10.35;90.57;95606.84;5022013;28;20301;-80
2023/10/30 03:08:01;;;;;;;18.70;7.10;;;;;;;10.34;90.88;95614.88;5057043;28;20277;-78
2023/10/30 03:10:27;;;;;;;14.00;7.00;;;;;;;10.39;89.63;95615.16;4959119;28;20484;-80
2023/10/30 03:12:53;;;;;;;17.97;7.50;;;;;;;10.39;89.36;95607.31;5039930;28;20237;-81
2023/10/30 03:15:18;;;;;;;15.90;7.50;;;;;;;10.28;89.53;95612.97;4952892;28;20231;-83
2023/10/30 03:17:44;;;;;;;17.80;7.47;;;;;;;10.16;90.31;95615.25;4971813;28;20251;-80
2023/10/30 03:20:09;;;;;;;21.00;7.90;;;;;;;10.27;89.78;95619.22;5034797;28;20227;-79
2023/10/30 03:22:35;;;;;;;17.93;7.13;;;;;;;10.27;88.59;95622.63;4967936;28;20773;-81
2023/10/30 03:25:01;;;;;;;18.23;7.40;;;;;;;10.23;88.65;95624.00;4975137;28;20612;-80
2023/10/30 03:27:26;;;;;;;16.30;6.80;;;;;;;10.00;89.15;95625.84;5053045;28;20239;-80
2023/10/30 03:29:52;;;;;;;15.23;6.77;;;;;;;10.19;88.49;95624.53;4989433;28;20265;-80
2023/10/30 03:32:17;;;;;;;14.37;6.90;;;;;;;10.35;88.50;95617.31;5035160;28;20242;-78
2023/10/30 03:34:46;;;;;;;16.67;6.70;;;;;;;10.49;87.69;95624.34;5027721;28;20231;-81
2023/10/30 03:37:11;;;;;;;15.37;6.60;;;;;;;10.46;87.19;95623.91;4971866;28;20223;-81
2023/10/30 03:39:37;;;;;;;18.57;6.33;;;;;;;10.37;87.03;95630.22;5039606;28;20316;-81
2023/10/30 03:42:02;;;;;;;13.73;6.07;;;;;;;10.51;87.22;95626.78;4971405;28;20775;-81
2023/10/30 03:44:29;;;;;;;12.83;6.00;;;;;;;10.45;85.01;95625.72;4988089;28;20240;-80
2023/10/30 03:46:54;;;;;;;16.47;6.40;;;;;;;10.08;87.96;95621.31;4935755;28;20280;-81
2023/10/30 03:49:49;;;;;;;14.03;5.87;;;;;;;10.19;87.47;95624.53;4941809;28;20232;-81
2023/10/30 03:52:14;;;;;;;16.17;6.00;;;;;;;10.24;86.89;95628.25;5020490;28;20263;-71
2023/10/30 03:54:45;;;;;;;15.13;6.23;;;;;;;9.86;88.98;95627.41;4981896;28;20239;-70
2023/10/30 03:57:35;;;;;;;15.67;5.93;;;;;;;10.13;87.27;95631.28;4921097;28;20227;-70
2023/10/30 04:00:01;;;;;;;13.50;5.73;;;;;;;10.04;87.64;95627.09;4996548;28;20250;-70
2023/10/30 04:02:28;;;;;;;12.37;5.47;;;;;;;10.15;87.14;95624.06;4949654;28;20235;-70
2023/10/30 04:04:54;;;;;;;13.47;5.70;;;;;;;9.94;87.30;95622.13;4981918;28;20227;-70
2023/10/30 04:07:20;;;;;;;15.37;5.63;;;;;;;9.92;87.36;95629.34;4969419;28;20223;-70
2023/10/30 04:09:55;;;;;;;11.63;5.10;;;;;;;9.98;86.84;95625.22;4980465;28;20709;-71
2023/10/30 04:12:20;;;;;;;12.83;5.20;;;;;;;9.94;86.62;95631.75;5021497;28;20737;-70
2023/10/30 04:14:46;;;;;;;15.10;5.23;;;;;;;10.05;86.07;95623.50;4954750;28;20228;-70
2023/10/30 04:17:12;;;;;;;12.37;5.40;;;;;;;9.64;88.00;95624.84;5020796;28;21103;-70
2023/10/30 04:19:38;;;;;;;14.60;5.47;;;;;;;9.77;87.85;95619.81;4953870;28;20236;-68
2023/10/30 04:22:03;;;;;;;14.80;5.27;;;;;;;9.85;88.39;95625.00;5023006;28;20223;-70
2023/10/30 04:24:29;;;;;;;15.20;5.47;;;;;;;9.97;86.81;95626.19;4956024;28;20238;-70
2023/10/30 04:26:54;;;;;;;14.57;5.47;;;;;;;9.83;88.11;95611.28;4968580;28;20228;-69
2023/10/30 04:29:20;;;;;;;11.87;5.60;;;;;;;9.91;88.04;95611.22;4949531;28;20254;-70
2023/10/30 04:31:45;;;;;;;16.30;5.20;;;;;;;9.99;88.79;95614.56;5039472;28;20257;-69
2023/10/30 04:34:11;;;;;;;20.13;5.63;;;;;;;9.81;88.26;95621.13;4969562;28;20835;-69
2023/10/30 04:36:36;;;;;;;12.07;5.17;;;;;;;9.74;90.30;95622.81;4968199;28;20236;-70
2023/10/30 04:39:02;;;;;;;14.40;5.77;;;;;;;9.89;89.72;95618.41;4980482;28;20243;-70
2023/10/30 04:41:27;;;;;;;14.70;5.60;;;;;;;9.80;90.39;95617.69;4947753;28;20240;-68
2023/10/30 04:43:53;;;;;;;13.53;5.70;;;;;;;9.82;89.52;95618.31;4961877;28;20734;-70
2023/10/30 04:46:18;;;;;;;15.47;5.67;;;;;;;9.93;90.00;95627.53;4955552;28;20223;-70
2023/10/30 04:48:44;;;;;;;17.13;5.77;;;;;;;9.94;89.73;95626.53;4967973;28;20227;-70
2023/10/30 04:51:09;;;;;;;14.63;6.03;;;;;;;9.83;89.53;95635.63;4995519;28;20227;-69
2023/10/30 04:53:34;;;;;;;17.47;5.90;;;;;;;9.66;91.36;95628.09;5051981;28;20230;-69
2023/10/30 04:56:07;;;;;;;16.23;6.13;;;;;;;9.76;90.66;95634.72;4970583;28;20228;-71
2023/10/30 04:58:54;;;;;;;15.53;6.10;;;;;;;9.51;92.21;95628.06;4951919;28;20314;-69
2023/10/30 05:01:19;;;;;;;13.20;5.30;;;;;;;9.62;91.64;95619.00;5024704;28;20255;-70
2023/10/30 05:03:45;;;;;;;14.70;6.10;;;;;;;9.72;90.86;95630.03;4966565;28;20304;-69
2023/10/30 05:06:10;;;;;;;13.60;5.73;;;;;;;9.64;91.30;95622.25;4980552;28;20288;-70
2023/10/30 05:08:36;;;;;;;16.10;6.00;;;;;;;9.55;91.98;95625.91;4966570;28;20283;-69
2023/10/30 05:11:02;;;;;;;12.73;6.37;;;;;;;9.88;90.72;95637.72;4970690;28;20246;-70
2023/10/30 05:13:28;;;;;;;12.73;5.83;;;;;;;9.80;91.08;95641.22;5025036;28;20271;-69
2023/10/30 05:15:56;;;;;;;14.87;5.97;;;;;;;9.76;91.34;95649.59;4956587;28;20246;-69
2023/10/30 05:18:24;;;;;;;14.07;5.93;;;;;;;9.72;91.77;95638.66;4953239;28;20239;-71
2023/10/30 05:20:50;;;;;;;17.17;6.00;;;;;;;9.69;92.08;95648.66;4982508;28;20798;-69
2023/10/30 05:23:16;;;;;;;24.47;10.10;;;;;;;9.70;91.73;95658.13;4981812;28;20287;-71
2023/10/30 05:25:41;;;;;;;19.67;6.60;;;;;;;9.69;92.01;95659.13;4969364;28;20223;-70
2023/10/30 05:28:07;;;;;;;19.37;6.30;;;;;;;9.60;91.83;95653.13;5025685;28;20334;-69
2023/10/30 05:30:35;;;;;;;15.73;6.10;;;;;;;9.76;91.12;95654.81;4953696;28;20228;-70
2023/10/30 05:33:01;;;;;;;16.77;6.40;;;;;;;9.85;91.05;95666.81;4953011;28;20234;-70
2023/10/30 05:35:26;;;;;;;15.33;6.33;;;;;;;9.97;90.04;95668.03;5054521;28;20227;-70
2023/10/30 05:37:51;;;;;;;21.60;6.40;;;;;;;10.05;90.10;95665.34;4981270;28;20669;-70
2023/10/30 05:40:17;;;;;;;18.67;6.40;;;;;;;10.16;89.15;95670.16;4947344;28;20333;-71
2023/10/30 05:42:43;;;;;;;21.60;6.70;;;;;;;10.22;88.19;95676.50;4992329;28;20234;-70
2023/10/30 05:45:08;;;;;;;18.70;8.07;;;;;;;10.33;87.70;95671.63;4973296;28;20224;-70
2023/10/30 05:47:34;;;;;;;24.20;7.30;;;;;;;10.41;87.22;95675.97;4980666;28;20230;-69
2023/10/30 05:49:59;;;;;;;20.00;7.30;;;;;;;10.29;87.93;95675.59;5050002;28;20231;-69
2023/10/30 05:52:25;;;;;;;20.60;7.23;;;;;;;10.35;86.60;95679.28;4982767;28;20231;-69
2023/10/30 05:54:50;;;;;;;21.70;7.30;;;;;;;10.28;86.08;95681.00;5039871;28;20227;-70
2023/10/30 05:57:17;;;;;;;19.60;7.50;;;;;;;10.45;85.86;95690.31;4992151;28;20231;-70
2023/10/30 05:59:42;;;;;;;18.27;7.63;;;;;;;10.46;85.27;95690.13;4986628;28;20258;-70
2023/10/30 06:02:23;;;;;;;22.00;7.70;;;;;;;10.47;85.83;95689.16;5034261;28;20957;-70
2023/10/30 06:04:48;;;;;;;23.43;7.90;;;;;;;10.37;86.61;95688.59;4988289;28;20716;-70
2023/10/30 06:07:13;;;;;;;24.37;8.17;;;;;;;10.55;85.39;95683.84;4954961;28;20242;-69
2023/10/30 06:09:39;;;;;;;22.03;8.43;;;;;;;10.75;84.15;95684.09;4956293;28;20257;-70
2023/10/30 06:12:05;;;;;;;20.90;8.27;;;;;;;10.59;85.27;95692.94;4966445;28;20813;-70
2023/10/30 06:14:30;;;;;;;25.67;8.90;;;;;;;10.72;84.33;95695.72;4942913;28;20276;-70
2023/10/30 06:16:58;;;;;;;28.67;9.10;;;;;;;10.67;85.42;95698.09;5037553;28;20243;-70
2023/10/30 06:19:23;;;;;;;24.13;8.33;;;;;;;10.87;84.28;95700.16;4950585;28;20331;-69
2023/10/30 06:21:49;;;;;;;23.43;8.43;;;;;;;10.88;84.21;95702.59;5034649;28;20231;-70
2023/10/30 06:24:15;;;;;;;24.00;8.50;;;;;;;10.92;84.75;95706.47;5051053;28;20238;-69
2023/10/30 06:26:41;;;;;;;21.00;8.37;;;;;;;10.97;84.59;95705.91;5039248;28;20277;-69
2023/10/30 06:29:20;;;;;;;21.67;8.30;;;;;;;11.06;84.39;95707.44;5017478;28;21399;-70
2023/10/30 06:31:46;;;;;;;21.80;8.80;;;;;;;11.18;84.22;95706.78;4931871;28;20291;-82
2023/10/30 06:34:12;;;;;;;21.73;8.83;;;;;;;11.25;83.41;95706.84;4979055;28;20223;-80
2023/10/30 06:36:38;;;;;;;23.73;8.80;;;;;;;11.44;83.08;95703.66;4981837;28;20367;-81
2023/10/30 06:39:04;;;;;;;25.03;8.80;;;;;;;11.44;83.54;95711.50;5006836;28;20701;-81
2023/10/30 06:41:30;;;;;;;20.53;8.07;;;;;;;11.46;83.97;95704.31;4984956;28;20227;-69
2023/10/30 06:43:55;;;;;;;21.60;8.40;;;;;;;11.55;83.95;95703.19;4985789;28;20514;-70
2023/10/30 06:46:20;;;;;;;23.70;8.30;;;;;;;11.58;83.89;95697.56;4986445;28;20233;-69
2023/10/30 06:48:46;;;;;;;19.40;7.43;;;;;;;11.64;84.85;95699.44;4980418;28;20762;-69
2023/10/30 06:51:12;;;;;;;17.50;7.43;;;;;;;11.77;84.12;95707.47;4980926;28;20227;-70
2023/10/30 06:53:39;;;;;;;21.00;7.80;;;;;;;11.89;82.87;95695.47;4977211;28;20307;-70
2023/10/30 06:56:06;;;;;;;21.33;7.57;;;;;;;11.84;84.81;95707.53;4971297;28;20220;-71
2023/10/30 06:58:32;;;;;;;16.90;7.50;;;;;;;11.96;84.60;95696.34;4933178;28;20235;-70
2023/10/30 07:01:02;;;;;;;19.03;7.33;;;;;;;12.00;84.68;95700.22;4966217;28;20262;-69
2023/10/30 07:03:28;;;;;;;25.13;7.37;;;;;;;11.99;85.13;95700.38;4987180;28;20261;-69
2023/10/30 07:05:53;;;;;;;17.90;7.30;;;;;;;12.16;84.49;95702.56;4987943;28;20757;-70
2023/10/30 07:08:19;;;;;;;16.83;7.10;;;;;;;12.25;84.68;95698.00;4988402;28;20750;-70
2023/10/30 07:10:44;;;;;;;17.07;6.83;;;;;;;12.50;83.22;95693.13;4955921;28;20735;-69
2023/10/30 07:13:10;;;;;;;17.03;6.13;;;;;;;12.63;81.92;95693.22;4975115;28;20743;-69
2023/10/30 07:15:35;;;;;;;14.97;5.77;;;;;;;12.80;81.72;95697.94;4979329;28;20239;-80
2023/10/30 07:18:01;;;;;;;20.97;8.00;;;;;;;12.89;80.96;95692.53;5059723;28;20246;-79
2023/10/30 07:20:26;;;;;;;16.17;7.70;;;;;;;12.84;81.81;95688.69;5036294;28;20236;-85
2023/10/30 07:22:52;;;;;;;19.20;8.30;;;;;;;12.92;80.89;95694.78;4986527;28;20376;-81
2023/10/30 07:25:17;;;;;;;24.23;9.17;;;;;;;13.01;80.73;95686.53;5011919;28;20231;-80
2023/10/30 07:27:43;;;;;;;21.70;9.60;;;;;;;13.07;79.84;95691.03;4971774;28;20288;-79
2023/10/30 07:30:08;;;;;;;28.20;9.90;;;;;;;13.04;78.73;95691.38;4987700;28;20226;-81
2023/10/30 07:32:34;;;;;;;21.80;9.27;;;;;;;13.18;78.67;95693.09;4971539;28;20227;-81
2023/10/30 07:35:00;;;;;;;19.53;8.70;;;;;;;13.13;79.71;95690.28;4977408;28;20633;-81
2023/10/30 07:37:26;;;;;;;21.57;8.80;;;;;;;13.18;79.98;95697.56;4987606;28;20892;-82
2023/10/30 07:39:52;;;;;;;23.57;9.33;;;;;;;13.22;79.56;95690.91;4982762;28;20246;-80
2023/10/30 07:42:18;;;;;;;21.67;9.20;;;;;;;13.41;78.83;95690.97;5056168;28;20235;-81
2023/10/30 07:44:44;;;;;;;24.83;10.77;;;;;;;13.47;78.35;95697.25;4984002;28;20238;-80
2023/10/30 07:47:10;;;;;;;22.57;9.57;;;;;;;13.54;77.43;95698.09;4964692;28;20276;-80
2023/10/30 07:49:35;;;;;;;20.13;9.53;;;;;;;13.65;78.19;95697.50;4938158;28;20239;-81
2023/10/30 07:52:01;;;;;;;25.47;9.73;;;;;;;13.68;78.60;95693.66;4993025;28;20230;-80
2023/10/30 07:54:26;;;;;;;27.30;9.23;;;;;;;13.71;77.67;95694.06;4957222;28;20239;-81
2023/10/30 07:56:51;;;;;;;27.57;9.07;;;;;;;13.75;77.93;95690.03;5053657;28;20226;-79
2023/10/30 07:59:17;;;;;;;28.80;9.90;;;;;;;13.75;77.70;95689.22;4970754;28;20446;-77
2023/10/30 08:01:45;;;;;;;26.33;9.90;;;;;;;13.74;77.75;95687.59;4965922;28;20238;-80
2023/10/30 08:04:10;;;;;;;22.73;9.80;;;;;;;13.75;77.40;95691.88;4995462;28;20279;-82
2023/10/30 08:06:36;;;;;;;27.13;9.40;;;;;;;13.82;78.14;95688.22;4993034;28;20232;-83
2023/10/30 08:09:01;;;;;;;30.90;10.17;;;;;;;13.90;77.15;95687.25;5055876;28;20239;-81
2023/10/30 08:11:27;;;;;;;27.73;9.53;;;;;;;13.86;77.42;95680.72;4992329;28;20245;-82
2023/10/30 08:13:52;;;;;;;24.50;9.90;;;;;;;13.88;77.14;95681.34;4954950;28;20244;-81
2023/10/30 08:16:18;;;;;;;26.13;9.20;;;;;;;13.92;76.99;95675.47;5040994;28;20255;-81
2023/10/30 08:18:44;;;;;;;25.27;9.60;;;;;;;14.01;77.25;95671.66;5046494;28;20956;-82
2023/10/30 08:21:09;;;;;;;40.20;13.23;;;;;;;14.07;76.81;95676.09;4991375;28;20655;-80
2023/10/30 08:23:36;;;;;;;35.30;10.50;;;;;;;14.25;76.81;95675.50;4963418;28;20243;-81
2023/10/30 08:26:03;;;;;;;29.77;10.47;;;;;;;14.28;76.45;95674.28;4959840;28;20682;-80
2023/10/30 08:28:29;;;;;;;23.43;10.00;;;;;;;14.38;76.23;95674.69;4997381;28;20363;-83
2023/10/30 08:30:55;;;;;;;23.87;9.53;;;;;;;14.46;76.67;95677.13;4978584;28;20629;-82
2023/10/30 08:33:21;;;;;;;26.10;9.10;;;;;;;14.63;75.44;95673.88;5036233;28;20239;-80
2023/10/30 08:35:46;;;;;;;25.03;8.87;;;;;;;14.75;75.18;95672.22;4968312;28;20365;-80
2023/10/30 08:38:12;;;;;;;20.30;8.67;;;;;;;14.80;75.91;95664.50;4960592;28;20232;-80
2023/10/30 08:40:41;;;;;;;23.10;8.20;;;;;;;14.87;74.85;95669.75;5035513;28;20715;-80
2023/10/30 08:43:07;;;;;;;21.23;8.00;;;;;;;14.98;74.67;95673.56;4958384;28;20247;-83
2023/10/30 08:45:32;;;;;;;25.77;8.80;;;;;;;15.07;74.46;95669.69;5010104;28;20224;-82
2023/10/30 08:47:58;;;;;;;22.53;8.50;;;;;;;15.12;75.06;95670.66;4978882;28;20228;-82
2023/10/30 08:50:23;;;;;;;24.77;8.53;;;;;;;15.24;75.18;95668.19;4977303;28;20227;-81
2023/10/30 08:52:48;;;;;;;18.23;8.10;;;;;;;15.30;74.43;95665.53;4957992;28;20220;-83
2023/10/30 08:55:14;;;;;;;21.97;8.67;;;;;;;15.14;74.49;95663.34;5058077;28;20626;-83
2023/10/30 08:57:40;;;;;;;21.13;8.50;;;;;;;14.98;74.90;95663.81;4991724;28;20302;-83
2023/10/30 09:00:09;;;;;;;22.43;8.63;;;;;;;15.21;74.82;95663.34;4974855;28;20288;-82
2023/10/30 09:02:34;;;;;;;26.77;8.73;;;;;;;15.30;74.44;95660.25;4989953;28;20373;-83
2023/10/30 09:04:59;;;;;;;26.23;9.40;;;;;;;15.38;74.42;95661.84;4954807;28;20231;-82
2023/10/30 09:07:25;;;;;;;28.83;10.60;;;;;;;15.57;74.96;95660.94;4972151;28;20234;-80
2023/10/30 09:09:51;;;;;;;31.17;10.90;;;;;;;15.70;74.15;95665.31;4988002;28;20219;-81
2023/10/30 09:12:17;;;;;;;26.90;11.37;;;;;;;15.62;74.08;95657.69;4967435;28;20232;-82
2023/10/30 09:14:42;;;;;;;31.33;13.07;;;;;;;15.79;73.61;95648.22;4963623;28;20242;-80
2023/10/30 09:17:08;;;;;;;34.77;14.13;;;;;;;15.98;72.12;95648.06;4976935;28;20681;-82
2023/10/30 09:19:37;;;;;;;28.27;11.50;;;;;;;16.05;72.16;95643.53;4965424;28;20275;-82
2023/10/30 09:22:03;;;;;;;32.40;11.23;;;;;;;16.19;71.94;95644.28;4953531;28;20231;-81
2023/10/30 09:24:29;;;;;;;24.90;10.07;;;;;;;16.34;72.30;95630.69;4964787;28;20242;-81
2023/10/30 09:26:54;;;;;;;28.90;9.90;;;;;;;16.24;72.75;95625.13;4968898;28;20235;-82
2023/10/30 09:29:20;;;;;;;25.90;10.33;;;;;;;16.50;72.14;95635.44;5037478;28;20301;-81
2023/10/30 09:31:48;;;;;;;22.10;8.77;;;;;;;16.47;71.71;95627.94;4990970;28;20227;-82
2023/10/30 09:34:14;;;;;;;19.03;8.57;;;;;;;16.38;72.95;95621.34;5052204;28;20232;-82
2023/10/30 09:36:39;;;;;;;22.10;8.50;;;;;;;16.44;73.13;95620.44;4951394;28;20253;-82
2023/10/30 09:39:05;;;;;;;19.93;8.10;;;;;;;16.71;71.27;95620.00;4971069;28;20662;-80
2023/10/30 09:41:31;;;;;;;20.23;8.30;;;;;;;16.77;71.98;95613.00;5015105;28;20331;-83
2023/10/30 09:43:56;;;;;;;17.00;8.43;;;;;;;16.87;71.19;95612.50;4968992;28;20257;-84
2023/10/30 09:46:24;;;;;;;19.37;8.57;;;;;;;16.91;71.49;95603.09;5021619;28;20236;-80
2023/10/30 09:48:50;;;;;;;19.20;8.50;;;;;;;17.08;70.49;95604.09;4971263;28;20227;-70
2023/10/30 09:51:15;;;;;;;18.67;7.67;;;;;;;17.26;69.93;95596.16;5054134;28;20611;-70
2023/10/30 09:53:40;;;;;;;18.67;7.53;;;;;;;17.36;70.38;95594.56;5050913;28;20235;-70
2023/10/30 09:56:06;;;;;;;16.73;7.17;;;;;;;17.44;69.48;95591.59;4984522;28;20234;-70
2023/10/30 09:58:32;;;;;;;20.43;7.30;;;;;;;17.35;70.42;95584.22;4983831;28;20263;-70
2023/10/30 10:00:59;;;;;;;18.13;6.60;;;;;;;17.37;70.58;95579.50;4954152;28;20830;-71
2023/10/30 10:03:25;;;;;;;18.60;6.60;;;;;;;17.60;70.03;95578.81;5033306;28;20261;-71
2023/10/30 10:05:57;;;;;;;17.10;6.20;;;;;;;17.75;68.92;95571.22;5036709;28;20224;-70
2023/10/30 10:08:23;;;;;;;16.70;6.27;;;;;;;17.63;70.04;95571.19;4962593;28;20231;-70
2023/10/30 10:10:55;;;;;;;13.73;5.90;;;;;;;17.73;69.74;95574.09;5041297;28;20675;-70
2023/10/30 10:13:21;;;;;;;14.23;5.97;;;;;;;17.64;69.91;95561.41;4977174;28;20236;-70
2023/10/30 10:15:47;;;;;;;15.90;6.10;;;;;;;17.79;69.30;95557.28;4977688;28;20235;-70
2023/10/30 10:18:25;;;;;;;17.97;6.33;;;;;;;17.95;69.00;95550.53;4967600;28;20230;-71
2023/10/30 10:21:00;;;;;;;15.60;5.50;;;;;;;18.10;68.77;95556.97;4969442;28;20845;-69
2023/10/30 10:23:33;;;;;;;17.47;5.53;;;;;;;18.10;68.70;95543.72;5058049;28;20234;-70
2023/10/30 10:26:13;;;;;;;13.73;5.40;;;;;;;18.31;67.93;95538.88;5015661;28;20232;-71
2023/10/30 10:28:38;;;;;;;13.73;6.20;;;;;;;18.49;67.01;95539.56;4956484;28;20231;-70
2023/10/30 10:31:04;;;;;;;11.90;5.13;;;;;;;18.51;67.35;95534.06;5051444;28;20234;-70
2023/10/30 10:33:30;;;;;;;14.17;5.40;;;;;;;18.58;67.56;95532.88;4948692;28;20235;-70
2023/10/30 10:35:58;;;;;;;10.30;4.53;;;;;;;18.76;66.93;95526.63;4950007;28;20255;-70
2023/10/30 10:38:23;;;;;;;13.63;4.87;;;;;;;18.95;65.29;95522.75;4975102;28;20231;-72
2023/10/30 10:40:50;;;;;;;14.03;5.17;;;;;;;19.00;65.10;95524.69;4953275;28;20631;-69
2023/10/30 10:43:18;;;;;;;10.37;4.93;;;;;;;19.15;64.25;95527.63;5042125;28;20369;-71
2023/10/30 10:45:45;;;;;;;15.37;4.87;;;;;;;19.13;64.71;95525.19;4946351;28;20231;-71
2023/10/30 10:48:11;;;;;;;17.00;6.67;;;;;;;19.25;63.71;95525.19;4994363;28;20269;-70
2023/10/30 10:50:37;;;;;;;12.70;4.60;;;;;;;19.41;63.28;95524.41;4956641;28;20239;-71
2023/10/30 10:53:03;;;;;;;11.57;4.43;;;;;;;19.36;63.41;95525.13;4963834;28;20228;-70
2023/10/30 10:55:29;;;;;;;12.20;4.50;;;;;;;19.41;63.54;95516.47;5055152;28;20236;-70
2023/10/30 10:58:12;;;;;;;15.67;4.47;;;;;;;19.48;63.90;95515.25;4955924;28;20228;-70
2023/10/30 11:00:42;;;;;;;12.50;4.40;;;;;;;19.54;62.25;95507.34;5051887;28;20230;-68
2023/10/30 11:03:08;;;;;;;10.53;4.37;;;;;;;19.64;61.61;95505.69;5016732;28;20289;-70
2023/10/30 11:05:33;;;;;;;13.07;4.30;;;;;;;19.78;61.20;95503.50;5054814;28;20231;-70
2023/10/30 11:08:22;;;;;;;10.83;4.20;;;;;;;19.76;61.35;95494.97;4982900;28;20317;-70
2023/10/30 11:10:49;;;;;;;12.07;4.40;;;;;;;19.88;61.00;95498.34;4985853;28;20235;-71
2023/10/30 11:13:34;;;;;;;13.27;4.47;;;;;;;20.03;60.54;95491.44;4959550;28;20240;-71
2023/10/30 11:16:21;;;;;;;13.10;5.20;;;;;;;20.25;59.41;95482.72;4984019;28;20238;-70
2023/10/30 11:18:50;;;;;;;10.77;3.30;;;;;;;20.44;57.61;95486.69;5040363;28;20273;-70
2023/10/30 11:21:16;;;;;;;9.17;3.40;;;;;;;20.45;57.13;95477.63;5052537;28;20274;-71
2023/10/30 11:23:44;;;;;;;9.17;3.23;;;;;;;20.52;57.34;95478.25;4982735;28;20222;-70